sensor_id;sensor_type;location;lat;lon;timestamp;temperature;humidity
41985;DHT22;28319;48.116;10.818;2023-04-16T00:00:37;5.50;99.90
41985;DHT22;28319;48.116;10.818;2023-04-16T00:05:40;5.50;99.90
41985;DHT22;28319;48.116;10.818;2023-04-16T00:10:43;5.50;99.90
41985;DHT22;28319;48.116;10.818;2023-04-16T00:15:45;5.50;99.90
41985;DHT22;28319;48.116;10.818;2023-04-16T00:20:47;5.50;99.90
41985;DHT22;28319;48.116;10.818;2023-04-16T00:25:51;5.40;99.90
41985;DHT22;28319;48.116;10.818;2023-04-16T00:30:56;5.50;99.90
41985;DHT22;28319;48.116;10.818;2023-04-16T00:35:59;5.40;99.90
41985;DHT22;28319;48.116;10.818;2023-04-16T00:41:02;5.40;99.90
41985;DHT22;28319;48.116;10.818;2023-04-16T00:46:04;5.40;99.90
41985;DHT22;28319;48.116;10.818;2023-04-16T00:51:08;5.40;99.90
41985;DHT22;28319;48.116;10.818;2023-04-16T00:56:11;5.40;99.90
41985;DHT22;28319;48.116;10.818;2023-04-16T01:01:13;5.40;99.90
41985;DHT22;28319;48.116;10.818;2023-04-16T01:06:16;5.30;99.90
41985;DHT22;28319;48.116;10.818;2023-04-16T01:11:20;5.20;99.90
41985;DHT22;28319;48.116;10.818;2023-04-16T01:16:22;5.20;99.90
41985;DHT22;28319;48.116;10.818;2023-04-16T01:21:25;5.30;99.90
41985;DHT22;28319;48.116;10.818;2023-04-16T01:26:27;5.30;99.90
41985;DHT22;28319;48.116;10.818;2023-04-16T01:31:29;5.20;99.90
41985;DHT22;28319;48.116;10.818;2023-04-16T01:36:32;5.30;99.90
41985;DHT22;28319;48.116;10.818;2023-04-16T01:41:34;5.20;99.90
41985;DHT22;28319;48.116;10.818;2023-04-16T01:46:37;5.40;99.90
41985;DHT22;28319;48.116;10.818;2023-04-16T01:51:40;5.30;99.90
41985;DHT22;28319;48.116;10.818;2023-04-16T01:56:42;5.30;99.90
41985;DHT22;28319;48.116;10.818;2023-04-16T02:01:44;5.20;99.90
41985;DHT22;28319;48.116;10.818;2023-04-16T02:06:48;5.20;99.90
41985;DHT22;28319;48.116;10.818;2023-04-16T02:11:50;5.20;99.90
41985;DHT22;28319;48.116;10.818;2023-04-16T02:16:52;5.20;99.90
41985;DHT22;28319;48.116;10.818;2023-04-16T02:21:55;5.20;99.90
41985;DHT22;28319;48.116;10.818;2023-04-16T02:26:57;5.20;99.90
41985;DHT22;28319;48.116;10.818;2023-04-16T02:31:59;5.20;99.90
41985;DHT22;28319;48.116;10.818;2023-04-16T02:37:02;5.20;99.90
41985;DHT22;28319;48.116;10.818;2023-04-16T02:42:04;5.20;99.90
41985;DHT22;28319;48.116;10.818;2023-04-16T02:47:06;5.10;99.90
41985;DHT22;28319;48.116;10.818;2023-04-16T02:52:10;5.10;99.90
41985;DHT22;28319;48.116;10.818;2023-04-16T02:57:12;5.20;99.90
41985;DHT22;28319;48.116;10.818;2023-04-16T03:02:14;5.20;99.90
41985;DHT22;28319;48.116;10.818;2023-04-16T03:07:18;5.30;99.90
41985;DHT22;28319;48.116;10.818;2023-04-16T03:12:20;5.20;99.90
41985;DHT22;28319;48.116;10.818;2023-04-16T03:17:22;5.20;99.90
41985;DHT22;28319;48.116;10.818;2023-04-16T03:22:25;5.20;99.90
41985;DHT22;28319;48.116;10.818;2023-04-16T03:27:27;5.20;99.90
41985;DHT22;28319;48.116;10.818;2023-04-16T03:32:29;5.20;99.90
41985;DHT22;28319;48.116;10.818;2023-04-16T03:37:32;5.20;99.90
41985;DHT22;28319;48.116;10.818;2023-04-16T03:42:34;5.20;99.90
41985;DHT22;28319;48.116;10.818;2023-04-16T03:47:36;5.30;99.90
41985;DHT22;28319;48.116;10.818;2023-04-16T03:52:40;5.20;99.90
41985;DHT22;28319;48.116;10.818;2023-04-16T03:57:42;5.20;99.90
41985;DHT22;28319;48.116;10.818;2023-04-16T04:02:44;5.30;99.90
41985;DHT22;28319;48.116;10.818;2023-04-16T04:07:47;5.20;99.90
41985;DHT22;28319;48.116;10.818;2023-04-16T04:12:49;5.20;99.90
41985;DHT22;28319;48.116;10.818;2023-04-16T04:17:51;5.40;99.90
41985;DHT22;28319;48.116;10.818;2023-04-16T04:22:55;5.40;99.90
41985;DHT22;28319;48.116;10.818;2023-04-16T04:27:57;5.30;99.90
41985;DHT22;28319;48.116;10.818;2023-04-16T04:32:59;5.30;99.90
41985;DHT22;28319;48.116;10.818;2023-04-16T04:38:02;5.50;99.90
41985;DHT22;28319;48.116;10.818;2023-04-16T04:43:04;5.30;99.90
41985;DHT22;28319;48.116;10.818;2023-04-16T04:48:06;5.40;99.90
41985;DHT22;28319;48.116;10.818;2023-04-16T04:53:10;5.50;99.90
41985;DHT22;28319;48.116;10.818;2023-04-16T04:58:14;5.30;99.90
41985;DHT22;28319;48.116;10.818;2023-04-16T05:03:19;5.70;99.90
41985;DHT22;28319;48.116;10.818;2023-04-16T05:08:23;5.30;99.90
41985;DHT22;28319;48.116;10.818;2023-04-16T05:13:25;5.30;99.90
41985;DHT22;28319;48.116;10.818;2023-04-16T05:18:27;5.20;99.90
41985;DHT22;28319;48.116;10.818;2023-04-16T05:23:30;5.30;99.90
41985;DHT22;28319;48.116;10.818;2023-04-16T05:28:32;5.20;99.90
41985;DHT22;28319;48.116;10.818;2023-04-16T05:33:34;5.50;99.90
41985;DHT22;28319;48.116;10.818;2023-04-16T05:38:37;5.40;99.90
41985;DHT22;28319;48.116;10.818;2023-04-16T05:43:39;5.50;99.90
41985;DHT22;28319;48.116;10.818;2023-04-16T05:48:41;5.10;99.90
41985;DHT22;28319;48.116;10.818;2023-04-16T05:53:44;5.10;99.90
41985;DHT22;28319;48.116;10.818;2023-04-16T05:58:46;5.10;99.90
41985;DHT22;28319;48.116;10.818;2023-04-16T06:03:48;5.10;99.90
41985;DHT22;28319;48.116;10.818;2023-04-16T06:08:52;5.10;99.90
41985;DHT22;28319;48.116;10.818;2023-04-16T06:13:54;5.20;99.90
41985;DHT22;28319;48.116;10.818;2023-04-16T06:18:56;5.20;99.90
41985;DHT22;28319;48.116;10.818;2023-04-16T06:23:59;5.20;99.90
41985;DHT22;28319;48.116;10.818;2023-04-16T06:29:01;5.30;99.90
41985;DHT22;28319;48.116;10.818;2023-04-16T06:34:03;5.60;99.90
41985;DHT22;28319;48.116;10.818;2023-04-16T06:39:07;5.30;99.90
41985;DHT22;28319;48.116;10.818;2023-04-16T06:44:09;5.20;99.90
41985;DHT22;28319;48.116;10.818;2023-04-16T06:49:11;5.30;99.90
41985;DHT22;28319;48.116;10.818;2023-04-16T06:54:14;5.30;99.90
41985;DHT22;28319;48.116;10.818;2023-04-16T06:59:16;5.20;99.90
41985;DHT22;28319;48.116;10.818;2023-04-16T07:04:18;5.30;99.90
41985;DHT22;28319;48.116;10.818;2023-04-16T07:09:21;5.30;99.90
41985;DHT22;28319;48.116;10.818;2023-04-16T07:14:24;5.40;99.90
41985;DHT22;28319;48.116;10.818;2023-04-16T07:19:26;5.90;99.90
41985;DHT22;28319;48.116;10.818;2023-04-16T07:24:33;5.50;99.90
41985;DHT22;28319;48.116;10.818;2023-04-16T07:29:35;5.70;99.90
41985;DHT22;28319;48.116;10.818;2023-04-16T07:34:37;5.70;99.90
41985;DHT22;28319;48.116;10.818;2023-04-16T07:39:40;5.80;99.90
41985;DHT22;28319;48.116;10.818;2023-04-16T07:44:42;5.90;99.90
41985;DHT22;28319;48.116;10.818;2023-04-16T07:49:45;5.90;99.90
41985;DHT22;28319;48.116;10.818;2023-04-16T07:54:48;5.90;99.90
41985;DHT22;28319;48.116;10.818;2023-04-16T07:59:51;5.90;99.90
41985;DHT22;28319;48.116;10.818;2023-04-16T08:04:53;6.00;99.90
41985;DHT22;28319;48.116;10.818;2023-04-16T08:09:56;6.10;99.90
41985;DHT22;28319;48.116;10.818;2023-04-16T08:14:58;6.10;99.90
41985;DHT22;28319;48.116;10.818;2023-04-16T08:20:00;6.20;99.90
41985;DHT22;28319;48.116;10.818;2023-04-16T08:25:04;6.20;99.90
41985;DHT22;28319;48.116;10.818;2023-04-16T08:30:07;6.30;99.90
41985;DHT22;28319;48.116;10.818;2023-04-16T08:35:09;6.30;99.90
41985;DHT22;28319;48.116;10.818;2023-04-16T08:40:12;6.40;99.90
41985;DHT22;28319;48.116;10.818;2023-04-16T08:45:16;6.40;99.90
41985;DHT22;28319;48.116;10.818;2023-04-16T08:50:22;6.50;99.90
41985;DHT22;28319;48.116;10.818;2023-04-16T08:55:31;6.60;99.90
41985;DHT22;28319;48.116;10.818;2023-04-16T09:00:37;6.60;99.90
41985;DHT22;28319;48.116;10.818;2023-04-16T09:05:41;6.60;99.90
41985;DHT22;28319;48.116;10.818;2023-04-16T09:10:45;6.70;99.90
41985;DHT22;28319;48.116;10.818;2023-04-16T09:15:51;6.70;99.90
41985;DHT22;28319;48.116;10.818;2023-04-16T09:20:53;6.70;99.90
41985;DHT22;28319;48.116;10.818;2023-04-16T09:25:58;6.70;99.90
41985;DHT22;28319;48.116;10.818;2023-04-16T09:31:07;6.70;99.90
41985;DHT22;28319;48.116;10.818;2023-04-16T09:36:09;6.80;99.90
41985;DHT22;28319;48.116;10.818;2023-04-16T09:41:13;6.80;99.90
41985;DHT22;28319;48.116;10.818;2023-04-16T09:46:16;6.80;99.90
41985;DHT22;28319;48.116;10.818;2023-04-16T09:51:18;6.80;99.90
41985;DHT22;28319;48.116;10.818;2023-04-16T09:56:24;7.00;99.90
41985;DHT22;28319;48.116;10.818;2023-04-16T10:01:26;7.00;99.90
41985;DHT22;28319;48.116;10.818;2023-04-16T10:06:28;7.00;99.90
41985;DHT22;28319;48.116;10.818;2023-04-16T10:11:32;6.90;99.90
41985;DHT22;28319;48.116;10.818;2023-04-16T10:16:34;7.00;99.90
41985;DHT22;28319;48.116;10.818;2023-04-16T10:21:39;7.00;99.90
41985;DHT22;28319;48.116;10.818;2023-04-16T10:26:43;7.00;99.90
41985;DHT22;28319;48.116;10.818;2023-04-16T10:31:46;7.10;99.90
41985;DHT22;28319;48.116;10.818;2023-04-16T10:36:49;7.10;99.90
41985;DHT22;28319;48.116;10.818;2023-04-16T10:42:06;7.10;99.90
41985;DHT22;28319;48.116;10.818;2023-04-16T10:47:12;7.00;99.90
41985;DHT22;28319;48.116;10.818;2023-04-16T10:52:15;7.00;99.90
41985;DHT22;28319;48.116;10.818;2023-04-16T10:57:19;7.00;99.90
41985;DHT22;28319;48.116;10.818;2023-04-16T11:02:27;7.10;99.90
41985;DHT22;28319;48.116;10.818;2023-04-16T11:07:32;7.10;99.90
41985;DHT22;28319;48.116;10.818;2023-04-16T11:12:37;7.10;99.90
41985;DHT22;28319;48.116;10.818;2023-04-16T11:17:42;7.10;99.90
41985;DHT22;28319;48.116;10.818;2023-04-16T11:22:45;7.10;99.90
41985;DHT22;28319;48.116;10.818;2023-04-16T11:27:57;7.00;99.90
41985;DHT22;28319;48.116;10.818;2023-04-16T11:33:01;7.00;99.90
41985;DHT22;28319;48.116;10.818;2023-04-16T11:38:03;7.00;99.90
41985;DHT22;28319;48.116;10.818;2023-04-16T11:43:14;7.10;99.90
41985;DHT22;28319;48.116;10.818;2023-04-16T11:48:16;7.30;99.90
41985;DHT22;28319;48.116;10.818;2023-04-16T11:53:21;7.40;99.90
41985;DHT22;28319;48.116;10.818;2023-04-16T11:58:25;7.50;99.90
41985;DHT22;28319;48.116;10.818;2023-04-16T12:03:37;7.60;99.90
41985;DHT22;28319;48.116;10.818;2023-04-16T12:08:39;7.70;99.90
41985;DHT22;28319;48.116;10.818;2023-04-16T12:19:00;7.70;99.90
41985;DHT22;28319;48.116;10.818;2023-04-16T12:24:05;7.80;99.90
41985;DHT22;28319;48.116;10.818;2023-04-16T12:29:18;7.80;99.90
41985;DHT22;28319;48.116;10.818;2023-04-16T12:34:21;7.90;99.90
41985;DHT22;28319;48.116;10.818;2023-04-16T12:39:22;7.90;99.90
41985;DHT22;28319;48.116;10.818;2023-04-16T12:44:27;8.00;99.90
41985;DHT22;28319;48.116;10.818;2023-04-16T12:49:28;8.10;99.90
41985;DHT22;28319;48.116;10.818;2023-04-16T12:54:31;8.00;99.90
41985;DHT22;28319;48.116;10.818;2023-04-16T12:59:37;8.10;99.90
41985;DHT22;28319;48.116;10.818;2023-04-16T13:04:39;8.20;99.90
41985;DHT22;28319;48.116;10.818;2023-04-16T13:09:41;8.20;99.90
41985;DHT22;28319;48.116;10.818;2023-04-16T13:14:44;8.20;99.90
41985;DHT22;28319;48.116;10.818;2023-04-16T13:19:46;8.30;99.90
41985;DHT22;28319;48.116;10.818;2023-04-16T13:24:49;8.40;99.90
41985;DHT22;28319;48.116;10.818;2023-04-16T13:29:52;8.50;99.90
41985;DHT22;28319;48.116;10.818;2023-04-16T13:34:55;8.50;99.90
41985;DHT22;28319;48.116;10.818;2023-04-16T13:39:58;8.60;99.90
41985;DHT22;28319;48.116;10.818;2023-04-16T13:45:02;8.70;99.90
41985;DHT22;28319;48.116;10.818;2023-04-16T13:50:05;8.70;99.90
41985;DHT22;28319;48.116;10.818;2023-04-16T13:55:07;8.70;99.90
41985;DHT22;28319;48.116;10.818;2023-04-16T14:00:15;8.60;99.90
41985;DHT22;28319;48.116;10.818;2023-04-16T14:05:18;8.50;99.90
41985;DHT22;28319;48.116;10.818;2023-04-16T14:10:20;8.50;99.90
41985;DHT22;28319;48.116;10.818;2023-04-16T14:15:23;8.60;99.90
41985;DHT22;28319;48.116;10.818;2023-04-16T14:20:28;8.50;99.90
41985;DHT22;28319;48.116;10.818;2023-04-16T14:25:30;8.60;99.90
41985;DHT22;28319;48.116;10.818;2023-04-16T14:30:34;8.80;99.90
41985;DHT22;28319;48.116;10.818;2023-04-16T14:35:36;8.70;99.90
41985;DHT22;28319;48.116;10.818;2023-04-16T14:40:38;8.80;99.90
41985;DHT22;28319;48.116;10.818;2023-04-16T14:45:41;8.70;99.90
41985;DHT22;28319;48.116;10.818;2023-04-16T14:50:44;8.50;99.90
41985;DHT22;28319;48.116;10.818;2023-04-16T14:55:46;8.50;99.90
41985;DHT22;28319;48.116;10.818;2023-04-16T15:00:49;8.40;99.90
41985;DHT22;28319;48.116;10.818;2023-04-16T15:05:53;8.50;99.90
41985;DHT22;28319;48.116;10.818;2023-04-16T15:10:55;8.40;99.90
41985;DHT22;28319;48.116;10.818;2023-04-16T15:15:59;8.40;99.90
41985;DHT22;28319;48.116;10.818;2023-04-16T15:21:01;8.30;99.90
41985;DHT22;28319;48.116;10.818;2023-04-16T15:26:04;8.30;99.90
41985;DHT22;28319;48.116;10.818;2023-04-16T15:31:07;8.10;99.90
41985;DHT22;28319;48.116;10.818;2023-04-16T15:36:09;8.20;99.90
41985;DHT22;28319;48.116;10.818;2023-04-16T15:41:14;8.10;99.90
41985;DHT22;28319;48.116;10.818;2023-04-16T15:46:18;8.00;99.90
41985;DHT22;28319;48.116;10.818;2023-04-16T15:51:20;8.10;99.90
41985;DHT22;28319;48.116;10.818;2023-04-16T15:56:22;8.10;99.90
41985;DHT22;28319;48.116;10.818;2023-04-16T16:01:25;8.00;99.90
41985;DHT22;28319;48.116;10.818;2023-04-16T16:06:28;8.00;99.90
41985;DHT22;28319;48.116;10.818;2023-04-16T16:11:32;8.10;99.90
41985;DHT22;28319;48.116;10.818;2023-04-16T16:16:36;8.10;99.90
41985;DHT22;28319;48.116;10.818;2023-04-16T16:21:39;8.10;99.90
41985;DHT22;28319;48.116;10.818;2023-04-16T16:26:45;8.10;99.90
41985;DHT22;28319;48.116;10.818;2023-04-16T16:31:48;7.90;99.90
41985;DHT22;28319;48.116;10.818;2023-04-16T16:36:52;7.90;99.90
41985;DHT22;28319;48.116;10.818;2023-04-16T16:41:54;7.90;99.90
41985;DHT22;28319;48.116;10.818;2023-04-16T16:46:57;7.80;99.90
41985;DHT22;28319;48.116;10.818;2023-04-16T16:51:59;7.90;99.90
41985;DHT22;28319;48.116;10.818;2023-04-16T16:57:02;7.90;99.90
41985;DHT22;28319;48.116;10.818;2023-04-16T17:02:06;7.90;99.90
41985;DHT22;28319;48.116;10.818;2023-04-16T17:07:08;7.80;99.90
41985;DHT22;28319;48.116;10.818;2023-04-16T17:12:11;7.80;99.90
41985;DHT22;28319;48.116;10.818;2023-04-16T17:17:14;7.80;99.90
41985;DHT22;28319;48.116;10.818;2023-04-16T17:22:16;7.80;99.90
41985;DHT22;28319;48.116;10.818;2023-04-16T17:27:18;7.70;99.90
41985;DHT22;28319;48.116;10.818;2023-04-16T17:32:22;7.80;99.90
41985;DHT22;28319;48.116;10.818;2023-04-16T17:37:24;7.80;99.90
41985;DHT22;28319;48.116;10.818;2023-04-16T17:42:26;7.80;99.90
41985;DHT22;28319;48.116;10.818;2023-04-16T17:47:30;7.80;99.90
41985;DHT22;28319;48.116;10.818;2023-04-16T17:52:33;7.90;99.90
41985;DHT22;28319;48.116;10.818;2023-04-16T17:57:36;7.90;99.90
41985;DHT22;28319;48.116;10.818;2023-04-16T18:02:40;7.80;99.90
41985;DHT22;28319;48.116;10.818;2023-04-16T18:07:42;7.90;99.90
41985;DHT22;28319;48.116;10.818;2023-04-16T18:12:45;7.90;99.90
41985;DHT22;28319;48.116;10.818;2023-04-16T18:17:49;7.90;99.90
41985;DHT22;28319;48.116;10.818;2023-04-16T18:22:51;7.90;99.90
41985;DHT22;28319;48.116;10.818;2023-04-16T18:27:53;7.90;99.90
41985;DHT22;28319;48.116;10.818;2023-04-16T18:32:58;7.90;99.90
41985;DHT22;28319;48.116;10.818;2023-04-16T18:38:00;7.90;99.90
41985;DHT22;28319;48.116;10.818;2023-04-16T18:43:02;7.90;99.90
41985;DHT22;28319;48.116;10.818;2023-04-16T18:48:06;8.00;99.90
41985;DHT22;28319;48.116;10.818;2023-04-16T18:53:08;8.00;99.90
41985;DHT22;28319;48.116;10.818;2023-04-16T18:58:11;7.90;99.90
41985;DHT22;28319;48.116;10.818;2023-04-16T19:03:14;7.90;99.90
41985;DHT22;28319;48.116;10.818;2023-04-16T19:08:16;7.90;99.90
41985;DHT22;28319;48.116;10.818;2023-04-16T19:13:18;7.90;99.90
41985;DHT22;28319;48.116;10.818;2023-04-16T19:18:22;7.90;99.90
41985;DHT22;28319;48.116;10.818;2023-04-16T19:23:24;8.00;99.90
41985;DHT22;28319;48.116;10.818;2023-04-16T19:28:27;8.00;99.90
41985;DHT22;28319;48.116;10.818;2023-04-16T19:33:30;8.10;99.90
41985;DHT22;28319;48.116;10.818;2023-04-16T19:38:32;8.30;99.90
41985;DHT22;28319;48.116;10.818;2023-04-16T19:43:34;8.20;99.90
41985;DHT22;28319;48.116;10.818;2023-04-16T19:48:37;8.10;99.90
41985;DHT22;28319;48.116;10.818;2023-04-16T19:53:40;8.20;99.90
41985;DHT22;28319;48.116;10.818;2023-04-16T19:58:42;8.10;99.90
41985;DHT22;28319;48.116;10.818;2023-04-16T20:03:45;8.10;99.90
41985;DHT22;28319;48.116;10.818;2023-04-16T20:08:47;8.00;99.90
41985;DHT22;28319;48.116;10.818;2023-04-16T20:13:50;8.00;99.90
41985;DHT22;28319;48.116;10.818;2023-04-16T20:18:53;7.90;99.90
41985;DHT22;28319;48.116;10.818;2023-04-16T20:23:56;8.00;99.90
41985;DHT22;28319;48.116;10.818;2023-04-16T20:28:59;7.90;99.90
41985;DHT22;28319;48.116;10.818;2023-04-16T20:34:02;7.90;99.90
41985;DHT22;28319;48.116;10.818;2023-04-16T20:39:05;8.00;99.90
41985;DHT22;28319;48.116;10.818;2023-04-16T20:44:09;8.00;99.90
41985;DHT22;28319;48.116;10.818;2023-04-16T20:49:19;8.00;99.90
41985;DHT22;28319;48.116;10.818;2023-04-16T20:54:22;8.00;99.90
41985;DHT22;28319;48.116;10.818;2023-04-16T20:59:24;8.10;99.90
41985;DHT22;28319;48.116;10.818;2023-04-16T21:04:28;8.20;99.90
41985;DHT22;28319;48.116;10.818;2023-04-16T21:09:30;8.30;99.90
41985;DHT22;28319;48.116;10.818;2023-04-16T21:14:32;8.30;99.90
41985;DHT22;28319;48.116;10.818;2023-04-16T21:19:35;8.30;99.90
41985;DHT22;28319;48.116;10.818;2023-04-16T21:24:37;8.30;99.90
41985;DHT22;28319;48.116;10.818;2023-04-16T21:29:40;8.40;99.90
41985;DHT22;28319;48.116;10.818;2023-04-16T21:34:43;8.30;99.90
41985;DHT22;28319;48.116;10.818;2023-04-16T21:39:45;8.30;99.90
41985;DHT22;28319;48.116;10.818;2023-04-16T21:44:48;8.20;99.90
41985;DHT22;28319;48.116;10.818;2023-04-16T21:49:52;8.00;99.90
41985;DHT22;28319;48.116;10.818;2023-04-16T21:54:54;7.90;99.90
41985;DHT22;28319;48.116;10.818;2023-04-16T21:59:57;7.70;99.90
41985;DHT22;28319;48.116;10.818;2023-04-16T22:05:01;7.70;99.90
41985;DHT22;28319;48.116;10.818;2023-04-16T22:10:04;7.70;99.90
41985;DHT22;28319;48.116;10.818;2023-04-16T22:15:08;7.70;99.90
41985;DHT22;28319;48.116;10.818;2023-04-16T22:20:12;7.90;99.90
41985;DHT22;28319;48.116;10.818;2023-04-16T22:25:15;8.00;99.90
41985;DHT22;28319;48.116;10.818;2023-04-16T22:30:17;8.10;99.90
41985;DHT22;28319;48.116;10.818;2023-04-16T22:35:21;7.90;99.90
41985;DHT22;28319;48.116;10.818;2023-04-16T22:40:23;7.90;99.90
41985;DHT22;28319;48.116;10.818;2023-04-16T22:45:25;7.90;99.90
41985;DHT22;28319;48.116;10.818;2023-04-16T22:50:30;8.00;99.90
41985;DHT22;28319;48.116;10.818;2023-04-16T22:55:33;7.90;99.90
41985;DHT22;28319;48.116;10.818;2023-04-16T23:00:35;7.90;99.90
41985;DHT22;28319;48.116;10.818;2023-04-16T23:05:38;7.80;99.90
41985;DHT22;28319;48.116;10.818;2023-04-16T23:10:40;7.80;99.90
41985;DHT22;28319;48.116;10.818;2023-04-16T23:15:43;7.90;99.90
41985;DHT22;28319;48.116;10.818;2023-04-16T23:20:51;7.90;99.90
41985;DHT22;28319;48.116;10.818;2023-04-16T23:25:54;7.70;99.90
41985;DHT22;28319;48.116;10.818;2023-04-16T23:30:56;7.60;99.90
41985;DHT22;28319;48.116;10.818;2023-04-16T23:35:59;7.50;99.90
41985;DHT22;28319;48.116;10.818;2023-04-16T23:41:04;7.40;99.90
41985;DHT22;28319;48.116;10.818;2023-04-16T23:46:06;7.30;99.90
41985;DHT22;28319;48.116;10.818;2023-04-16T23:51:10;7.30;99.90
41985;DHT22;28319;48.116;10.818;2023-04-16T23:56:12;7.30;99.90
